Página principal
METAR-TAF:

METAR-TAF

Aeroportos :

Madrid-Cuatro Vientos, Espanha

latitude: 40-23N, longitude: 003-47W, altura: 690 m

Observação actual do tempo

O boletim foi feito há 9 horas e 52 minutos, às 19:00 UTC
Vento 9 kt de norte, variando entre oes-noroeste e nordeste
Temperatura 7°C
Humidade 45%
Pressão 1009 hPa
Visibilidade 10 km ou mais
Poucas nuvensa uma altura de 5800 ft

METAR: LEVS 211900Z 36009KT 300V040 9999 FEW058 07/M04 Q1009

Hora: 05:52 (04:52 UTC)

Previsão

O boletim foi feito há 11 horas e 52 minutos, às 17:00 UTC
Previsão válida de 21 às 18 UTC a 22 às 03 UTC
Vento 12 kt de norte
Visibilidade 10 km ou mais
Nuvens dispersasa uma altura de 4000 ft
Probabilidade 40% :
Temporariamente
de 21 às 18 UTC a 21 às 20 UTC
Vento 20 kt de norte com rajadas de 32 kt

TAF: LEVS 211700Z 2118/2203 01012KT 9999 SCT040 PROB40 TEMPO 2118/2120 01020G32KT

Observações e previsões do tempo de mais de 4000 aeroportos (mensagens METAR e TAF).

As estações disponíveis são os pontos amarelos e vermelhos sobre o mapa.

Mova o rato sobre o mapa para ver o nome da estação.

Depois clique no ponto para visualizar as observações e previsões meteorológicas.

Para alterar o mapa : clique nos botões verdes com uma cruz preta para aumentar o zoom; no botão verde com uma pitada de zoom; ou nas setas verdes para mapas adjacentes.


METAR-TAF: